Time;durP1;ratioP1;P1;durP2;ratioP2;P2;SDS_P1;SDS_P2;PMS_P1;PMS_P2;Temp;Humidity;BMP_temperature;BMP_pressure;BME280_temperature;BME280_humidity;BME280_pressure;Samples;Min_cycle;Max_cycle;Signal;HPM_P1;HPM_P2
2022/12/19 00:00:12;;;;;;;;;;;0.00;99.90;;;;;;5055791;28;19927;-69
2022/12/19 00:02:37;;;;;;;;;;;0.00;99.90;;;;;;5059561;28;19972;-69
2022/12/19 00:05:03;;;;;;;;;;;-0.10;99.90;;;;;;5051487;28;20022;-69
2022/12/19 00:07:29;;;;;;;;;;;0.00;99.90;;;;;;5007912;28;19920;-69
2022/12/19 00:09:54;;;;;;;;;;;0.00;99.90;;;;;;5050887;28;20322;-69
2022/12/19 00:12:20;;;;;;;;;;;0.00;99.90;;;;;;5058420;28;20296;-69
2022/12/19 00:14:46;;;;;;;;;;;0.10;99.90;;;;;;5033273;28;19926;-69
2022/12/19 00:17:11;;;;;;;;;;;0.00;99.90;;;;;;5000116;28;19928;-69
2022/12/19 00:19:37;;;;;;;;;;;0.20;99.90;;;;;;5004406;28;19924;-69
2022/12/19 00:22:02;;;;;;;;;;;0.00;99.90;;;;;;5042729;28;20288;-68
2022/12/19 00:24:28;;;;;;;;;;;0.00;99.90;;;;;;5058206;28;20079;-68
2022/12/19 00:26:54;;;;;;;;;;;0.00;99.90;;;;;;5069875;28;19922;-68
2022/12/19 00:29:19;;;;;;;;;;;0.00;99.90;;;;;;5008776;28;20393;-68
2022/12/19 00:31:45;;;;;;;;;;;0.00;99.90;;;;;;5065027;28;19944;-69
2022/12/19 00:34:10;;;;;;;;;;;0.00;99.90;;;;;;5067044;28;19951;-68
2022/12/19 00:36:36;;;;;;;;;;;0.10;99.90;;;;;;4990735;28;19922;-68
2022/12/19 00:39:03;;;;;;;;;;;0.10;99.90;;;;;;5053529;28;19921;-69
2022/12/19 00:41:30;;;;;;;;;;;0.10;99.90;;;;;;5017961;28;19932;-70
2022/12/19 00:44:03;;;;;;;;;;;0.10;99.90;;;;;;5009625;28;19932;-68
2022/12/19 00:46:30;;;;;;;;;;;0.10;99.90;;;;;;5066295;28;19974;-69
2022/12/19 00:48:56;;;;;;;;;;;0.10;99.90;;;;;;5042985;28;19920;-69
2022/12/19 00:51:23;;;;;;;;;;;0.10;99.90;;;;;;5059657;28;20337;-69
2022/12/19 00:53:49;;;;;;;;;;;0.10;99.90;;;;;;5072485;28;19920;-69
2022/12/19 00:56:19;;;;;;;;;;;0.20;99.90;;;;;;5069815;28;20474;-69
2022/12/19 00:58:45;;;;;;;;;;;0.20;99.90;;;;;;5059939;28;19920;-69
2022/12/19 01:01:20;;;;;;;;;;;0.70;99.90;;;;;;5036898;28;19941;-68
2022/12/19 01:03:46;;;;;;;;;;;0.20;99.90;;;;;;5019204;28;19932;-69
2022/12/19 01:06:12;;;;;;;;;;;0.20;99.90;;;;;;5035041;28;19920;-69
2022/12/19 01:08:38;;;;;;;;;;;0.20;99.90;;;;;;4989524;28;19953;-68
2022/12/19 01:11:04;;;;;;;;;;;0.20;99.90;;;;;;5034871;28;20325;-69
2022/12/19 01:13:30;;;;;;;;;;;0.20;99.90;;;;;;5065462;28;19943;-69
2022/12/19 01:16:01;;;;;;;;;;;0.20;99.90;;;;;;5007552;28;19927;-69
2022/12/19 01:18:26;;;;;;;;;;;0.40;99.90;;;;;;5059011;28;19927;-69
2022/12/19 01:20:52;;;;;;;;;;;0.30;99.90;;;;;;5050692;28;19929;-69
2022/12/19 01:23:17;;;;;;;;;;;0.30;99.90;;;;;;4995869;28;19926;-69
2022/12/19 01:25:47;;;;;;;;;;;0.40;99.90;;;;;;5029885;28;19922;-69
2022/12/19 01:28:13;;;;;;;;;;;0.40;99.90;;;;;;5037297;28;19941;-69
2022/12/19 01:30:39;;;;;;;;;;;0.60;99.90;;;;;;5052662;28;19920;-69
2022/12/19 01:33:05;;;;;;;;;;;0.40;99.90;;;;;;5036454;27;19929;-69
2022/12/19 01:35:31;;;;;;;;;;;0.40;99.90;;;;;;5001288;28;19922;-69
2022/12/19 01:37:57;;;;;;;;;;;0.40;99.90;;;;;;5065606;28;19933;-69
2022/12/19 01:40:23;;;;;;;;;;;0.40;99.90;;;;;;5054973;28;20310;-69
2022/12/19 01:42:49;;;;;;;;;;;0.50;99.90;;;;;;5052552;28;19939;-69
2022/12/19 01:45:21;;;;;;;;;;;0.50;99.90;;;;;;5030081;28;20070;-69
2022/12/19 01:47:52;;;;;;;;;;;0.50;99.90;;;;;;5073800;28;19920;-69
2022/12/19 01:50:20;;;;;;;;;;;0.50;99.90;;;;;;5042579;28;19928;-69
2022/12/19 01:52:46;;;;;;;;;;;0.50;99.90;;;;;;5058130;28;19920;-69
2022/12/19 01:55:12;;;;;;;;;;;0.50;99.90;;;;;;5002735;28;19922;-69
2022/12/19 01:57:37;;;;;;;;;;;0.50;99.90;;;;;;5064321;27;19928;-69
2022/12/19 02:00:03;;;;;;;;;;;0.50;99.90;;;;;;5046105;28;19924;-69
2022/12/19 02:02:51;;;;;;;;;;;0.50;99.90;;;;;;5072341;28;20274;-69
2022/12/19 02:05:17;;;;;;;;;;;0.60;99.90;;;;;;5066347;28;19927;-69
2022/12/19 02:07:43;;;;;;;;;;;0.60;99.90;;;;;;5013429;28;20387;-69
2022/12/19 02:10:08;;;;;;;;;;;0.60;99.90;;;;;;5072650;28;19999;-69
2022/12/19 02:12:35;;;;;;;;;;;0.60;99.90;;;;;;5064632;28;19920;-69
2022/12/19 02:15:01;;;;;;;;;;;0.70;99.90;;;;;;5065414;28;19922;-69
2022/12/19 02:17:46;;;;;;;;;;;0.70;99.90;;;;;;5006704;28;19931;-69
2022/12/19 02:20:22;;;;;;;;;;;0.70;99.90;;;;;;5035804;28;19922;-69
2022/12/19 02:23:00;;;;;;;;;;;0.70;99.90;;;;;;5055654;28;19928;-69
2022/12/19 02:25:34;;;;;;;;;;;0.70;99.90;;;;;;5011765;28;19999;-69
2022/12/19 02:28:28;;;;;;;;;;;0.70;99.90;;;;;;5061778;28;19920;-69
2022/12/19 02:31:13;;;;;;;;;;;0.70;99.90;;;;;;5045703;28;19957;-69
2022/12/19 02:33:40;;;;;;;;;;;0.80;99.90;;;;;;5057268;28;19965;-69
2022/12/19 02:36:14;;;;;;;;;;;0.80;99.90;;;;;;5042722;27;20012;-70
2022/12/19 02:38:45;;;;;;;;;;;0.80;99.90;;;;;;5045394;28;20020;-70
2022/12/19 02:41:17;;;;;;;;;;;0.80;99.90;;;;;;5057556;28;19932;-70
2022/12/19 02:43:45;;;;;;;;;;;0.70;99.90;;;;;;5044538;28;19924;-70
2022/12/19 02:46:11;;;;;;;;;;;0.70;99.90;;;;;;5024581;28;19924;-70
2022/12/19 02:48:36;;;;;;;;;;;0.70;99.90;;;;;;5054684;27;20034;-70
2022/12/19 02:51:02;;;;;;;;;;;0.70;99.90;;;;;;5039176;27;20593;-70
2022/12/19 02:53:28;;;;;;;;;;;0.70;99.90;;;;;;5036895;28;19921;-70
2022/12/19 02:55:53;;;;;;;;;;;0.70;99.90;;;;;;5054467;28;20007;-70
2022/12/19 02:58:19;;;;;;;;;;;0.70;99.90;;;;;;4993971;28;19922;-70
2022/12/19 03:01:07;;;;;;;;;;;0.70;99.90;;;;;;5055418;28;19926;-71
2022/12/19 03:03:46;;;;;;;;;;;0.70;99.90;;;;;;5006746;28;19977;-70
2022/12/19 03:06:25;;;;;;;;;;;0.70;99.90;;;;;;5064083;28;19974;-71
2022/12/19 03:09:16;;;;;;;;;;;0.70;99.90;;;;;;5044163;28;19944;-70
2022/12/19 03:11:43;;;;;;;;;;;0.70;99.90;;;;;;5044491;28;19934;-71
2022/12/19 03:14:12;;;;;;;;;;;0.70;99.90;;;;;;5004142;28;20014;-71
2022/12/19 03:16:38;;;;;;;;;;;0.70;99.90;;;;;;5070930;28;19973;-71
2022/12/19 03:19:07;;;;;;;;;;;0.80;99.90;;;;;;5070207;28;20319;-71
2022/12/19 03:21:33;;;;;;;;;;;0.70;99.90;;;;;;5010150;28;19920;-71
2022/12/19 03:23:59;;;;;;;;;;;0.80;99.90;;;;;;5058283;27;19931;-71
2022/12/19 03:26:27;;;;;;;;;;;0.80;99.90;;;;;;4991905;28;19952;-71
2022/12/19 03:28:56;;;;;;;;;;;0.80;99.90;;;;;;5003975;28;19920;-71
2022/12/19 03:31:23;;;;;;;;;;;0.80;99.90;;;;;;4997589;28;19933;-71
2022/12/19 03:33:51;;;;;;;;;;;0.80;99.90;;;;;;5071905;28;19920;-71
2022/12/19 03:36:18;;;;;;;;;;;0.80;99.90;;;;;;5059862;28;19985;-71
2022/12/19 03:38:45;;;;;;;;;;;0.90;99.90;;;;;;5029093;28;20012;-71
2022/12/19 03:41:12;;;;;;;;;;;0.90;99.90;;;;;;5052242;27;20067;-71
2022/12/19 03:43:38;;;;;;;;;;;1.10;99.90;;;;;;4985057;28;19970;-71
2022/12/19 03:46:12;;;;;;;;;;;1.00;99.90;;;;;;5036770;27;19927;-71
2022/12/19 03:48:41;;;;;;;;;;;1.00;99.90;;;;;;4992784;28;19921;-71
2022/12/19 03:51:07;;;;;;;;;;;1.10;99.90;;;;;;5010841;28;20401;-71
2022/12/19 03:53:32;;;;;;;;;;;1.10;99.90;;;;;;4999640;28;19922;-71
2022/12/19 03:56:04;;;;;;;;;;;1.40;99.90;;;;;;5027823;27;19944;-71
2022/12/19 03:58:33;;;;;;;;;;;1.20;99.90;;;;;;5050722;28;19965;-71
2022/12/19 04:00:59;;;;;;;;;;;1.50;99.90;;;;;;5010049;28;20445;-71
2022/12/19 04:03:26;;;;;;;;;;;1.20;99.90;;;;;;5007135;28;19926;-71
2022/12/19 04:05:52;;;;;;;;;;;1.40;99.90;;;;;;5038719;28;20262;-71
2022/12/19 04:08:19;;;;;;;;;;;1.30;99.90;;;;;;5022471;28;20004;-71
2022/12/19 04:10:49;;;;;;;;;;;1.30;99.90;;;;;;5055905;27;19925;-71
2022/12/19 04:13:17;;;;;;;;;;;1.30;99.90;;;;;;5000705;28;20008;-71
2022/12/19 04:15:49;;;;;;;;;;;1.30;99.90;;;;;;5054811;27;19922;-71
2022/12/19 04:18:16;;;;;;;;;;;1.90;99.90;;;;;;5001057;28;19922;-71
2022/12/19 04:20:46;;;;;;;;;;;1.40;99.90;;;;;;5066737;27;19920;-71
2022/12/19 04:23:19;;;;;;;;;;;1.40;99.90;;;;;;5027798;27;19925;-71
2022/12/19 04:25:49;;;;;;;;;;;1.40;99.90;;;;;;5043537;28;19935;-71
2022/12/19 04:28:24;;;;;;;;;;;1.50;99.90;;;;;;4989109;28;19952;-71
2022/12/19 04:30:50;;;;;;;;;;;1.60;99.90;;;;;;5054269;28;19926;-71
2022/12/19 04:33:18;;;;;;;;;;;1.60;99.90;;;;;;5051351;28;19921;-70
2022/12/19 04:35:44;;;;;;;;;;;1.60;99.90;;;;;;4993168;28;20008;-70
2022/12/19 04:38:10;;;;;;;;;;;1.70;99.90;;;;;;4995877;28;20054;-70
2022/12/19 04:40:38;;;;;;;;;;;1.60;99.90;;;;;;5029910;28;19928;-70
2022/12/19 04:43:06;;;;;;;;;;;1.80;99.90;;;;;;4990915;28;20016;-70
2022/12/19 04:45:31;;;;;;;;;;;1.70;99.90;;;;;;5033590;28;19943;-70
2022/12/19 04:48:00;;;;;;;;;;;1.70;99.90;;;;;;5066033;27;20406;-70
2022/12/19 04:50:25;;;;;;;;;;;2.20;99.90;;;;;;5054293;28;19921;-70
2022/12/19 04:52:57;;;;;;;;;;;1.80;99.90;;;;;;5037688;27;19997;-69
2022/12/19 04:55:31;;;;;;;;;;;1.80;99.90;;;;;;5056254;28;19931;-70
2022/12/19 04:58:03;;;;;;;;;;;1.90;99.90;;;;;;5014944;28;19983;-70
2022/12/19 05:00:34;;;;;;;;;;;1.80;99.90;;;;;;5039717;28;20696;-69
2022/12/19 05:03:00;;;;;;;;;;;1.80;99.90;;;;;;5069371;28;19928;-69
2022/12/19 05:05:25;;;;;;;;;;;1.90;99.90;;;;;;5057344;28;20007;-70
2022/12/19 05:07:51;;;;;;;;;;;1.90;99.90;;;;;;5049531;28;19928;-70
2022/12/19 05:10:16;;;;;;;;;;;2.00;99.90;;;;;;5040912;28;19929;-69
2022/12/19 05:12:48;;;;;;;;;;;2.00;99.90;;;;;;5017263;28;19978;-69
2022/12/19 05:15:17;;;;;;;;;;;2.10;99.90;;;;;;5042787;28;20319;-69
2022/12/19 05:17:43;;;;;;;;;;;2.00;99.90;;;;;;5077876;28;19971;-69
2022/12/19 05:20:09;;;;;;;;;;;2.10;99.90;;;;;;5003297;28;19973;-69
2022/12/19 05:22:35;;;;;;;;;;;2.10;99.90;;;;;;5002089;28;20024;-69
2022/12/19 05:25:05;;;;;;;;;;;2.10;99.90;;;;;;5075008;28;20366;-69
2022/12/19 05:27:31;;;;;;;;;;;2.20;99.90;;;;;;5024948;28;19983;-69
2022/12/19 05:29:56;;;;;;;;;;;2.20;99.90;;;;;;5010586;28;20318;-69
2022/12/19 05:32:22;;;;;;;;;;;2.30;99.90;;;;;;4977300;28;20020;-69
2022/12/19 05:34:47;;;;;;;;;;;2.60;99.90;;;;;;5024783;28;19977;-69
2022/12/19 05:37:13;;;;;;;;;;;2.30;99.90;;;;;;5070808;28;20042;-69
2022/12/19 05:39:38;;;;;;;;;;;2.50;99.90;;;;;;5040336;28;19921;-69
2022/12/19 05:42:04;;;;;;;;;;;2.30;99.90;;;;;;5029555;28;20032;-69
2022/12/19 05:44:30;;;;;;;;;;;2.40;99.90;;;;;;5048519;28;19925;-69
2022/12/19 05:46:58;;;;;;;;;;;2.40;99.90;;;;;;5033919;28;20359;-69
2022/12/19 05:49:24;;;;;;;;;;;2.50;99.90;;;;;;5060324;28;20014;-68
2022/12/19 05:51:49;;;;;;;;;;;2.50;99.90;;;;;;4996353;28;19922;-69
2022/12/19 05:54:15;;;;;;;;;;;2.50;99.90;;;;;;5020403;28;19936;-69
2022/12/19 05:56:48;;;;;;;;;;;2.60;99.90;;;;;;5014187;28;19976;-69
2022/12/19 05:59:14;;;;;;;;;;;2.60;99.90;;;;;;5060114;28;19929;-69
2022/12/19 06:01:39;;;;;;;;;;;2.70;99.90;;;;;;5073375;28;20312;-69
2022/12/19 06:04:08;;;;;;;;;;;2.80;99.90;;;;;;5029897;28;19921;-68
2022/12/19 06:06:34;;;;;;;;;;;2.80;99.90;;;;;;5041627;28;19924;-68
2022/12/19 06:09:00;;;;;;;;;;;2.90;99.90;;;;;;5029164;28;20441;-68
2022/12/19 06:11:26;;;;;;;;;;;2.90;99.90;;;;;;5033594;28;19929;-68
2022/12/19 06:13:52;;;;;;;;;;;3.20;99.90;;;;;;5052847;28;20002;-69
2022/12/19 06:16:18;;;;;;;;;;;2.90;99.90;;;;;;5057140;28;19924;-68
2022/12/19 06:18:45;;;;;;;;;;;2.90;99.90;;;;;;5001645;28;19925;-68
2022/12/19 06:21:28;;;;;;;;;;;2.90;99.90;;;;;;5058498;28;20326;-68
2022/12/19 06:23:54;;;;;;;;;;;2.90;99.90;;;;;;5088546;27;19959;-68
2022/12/19 06:26:21;;;;;;;;;;;2.90;99.90;;;;;;5070789;28;19942;-68
2022/12/19 06:28:47;;;;;;;;;;;2.90;99.90;;;;;;5047970;28;20031;-69
2022/12/19 06:31:16;;;;;;;;;;;3.10;99.90;;;;;;5059749;28;19935;-69
2022/12/19 06:33:43;;;;;;;;;;;3.20;99.90;;;;;;5004674;28;19979;-69
2022/12/19 06:36:19;;;;;;;;;;;3.30;99.90;;;;;;5072667;28;20014;-69
2022/12/19 06:38:47;;;;;;;;;;;3.30;99.90;;;;;;5044082;28;19924;-68
2022/12/19 06:43:58;;;;;;;;;;;3.50;99.90;;;;;;5015248;28;20412;-68
2022/12/19 06:46:24;;;;;;;;;;;3.60;99.90;;;;;;5070816;28;19967;-68
2022/12/19 06:48:49;;;;;;;;;;;3.70;99.90;;;;;;5020134;28;20365;-68
2022/12/19 06:51:15;;;;;;;;;;;3.70;99.90;;;;;;4994627;28;19925;-68
2022/12/19 06:53:41;;;;;;;;;;;3.80;99.90;;;;;;5046788;28;19922;-68
2022/12/19 06:56:07;;;;;;;;;;;4.20;99.90;;;;;;5063297;28;19925;-68
2022/12/19 06:58:33;;;;;;;;;;;4.00;99.90;;;;;;4999512;28;19929;-69
2022/12/19 07:00:58;;;;;;;;;;;3.90;99.90;;;;;;5045072;28;19921;-68
2022/12/19 07:03:26;;;;;;;;;;;3.90;99.90;;;;;;5025381;28;19934;-69
2022/12/19 07:05:52;;;;;;;;;;;4.00;99.90;;;;;;5049814;28;20021;-69
2022/12/19 07:08:17;;;;;;;;;;;4.00;99.90;;;;;;5024229;28;19929;-69
2022/12/19 07:10:43;;;;;;;;;;;4.00;99.90;;;;;;5074150;27;20021;-69
2022/12/19 07:13:08;;;;;;;;;;;4.00;99.90;;;;;;5009619;28;20010;-69
2022/12/19 07:15:35;;;;;;;;;;;4.10;99.90;;;;;;5005444;28;19977;-69
2022/12/19 07:18:02;;;;;;;;;;;4.10;99.90;;;;;;5033087;28;20426;-69
2022/12/19 07:20:28;;;;;;;;;;;4.10;99.90;;;;;;5014678;28;19932;-69
2022/12/19 07:22:53;;;;;;;;;;;4.10;99.90;;;;;;5016661;28;20012;-69
2022/12/19 07:25:19;;;;;;;;;;;4.10;99.90;;;;;;5049371;28;19930;-69
2022/12/19 07:27:45;;;;;;;;;;;4.10;99.90;;;;;;5024373;28;20379;-69
2022/12/19 07:30:10;;;;;;;;;;;4.20;99.90;;;;;;5048735;28;20057;-68
2022/12/19 07:32:37;;;;;;;;;;;4.30;99.90;;;;;;5048932;28;19968;-69
2022/12/19 07:35:03;;;;;;;;;;;4.20;99.90;;;;;;5000174;28;20273;-68
2022/12/19 07:37:31;;;;;;;;;;;4.30;99.90;;;;;;5026963;28;19921;-69
2022/12/19 07:39:57;;;;;;;;;;;4.30;99.90;;;;;;5000713;28;20299;-69
2022/12/19 07:42:22;;;;;;;;;;;4.30;99.90;;;;;;5012115;28;19929;-69
2022/12/19 07:44:48;;;;;;;;;;;4.40;99.90;;;;;;5005922;28;19936;-69
2022/12/19 07:47:13;;;;;;;;;;;4.40;99.90;;;;;;4995674;28;20460;-70
2022/12/19 07:49:39;;;;;;;;;;;4.40;99.90;;;;;;5022621;28;20052;-69
2022/12/19 07:52:05;;;;;;;;;;;4.50;99.90;;;;;;4989854;28;20322;-69
2022/12/19 07:54:49;;;;;;;;;;;4.50;99.90;;;;;;5003533;28;19922;-69
2022/12/19 07:57:15;;;;;;;;;;;4.40;99.90;;;;;;5021932;28;19968;-70
2022/12/19 07:59:41;;;;;;;;;;;4.50;99.90;;;;;;5011407;28;19934;-70
2022/12/19 08:02:06;;;;;;;;;;;4.50;99.90;;;;;;4990055;28;20048;-70
2022/12/19 08:04:32;;;;;;;;;;;4.60;99.90;;;;;;4987804;28;19979;-70
2022/12/19 08:06:57;;;;;;;;;;;4.60;99.90;;;;;;4999278;28;19936;-70
2022/12/19 08:09:26;;;;;;;;;;;4.60;99.90;;;;;;4997549;28;19929;-70
2022/12/19 08:11:52;;;;;;;;;;;4.60;99.90;;;;;;4983293;28;19937;-70
2022/12/19 08:14:18;;;;;;;;;;;4.70;99.90;;;;;;4982533;28;19924;-69
2022/12/19 08:16:46;;;;;;;;;;;4.70;99.90;;;;;;4981706;28;20363;-70
2022/12/19 08:19:12;;;;;;;;;;;4.70;99.90;;;;;;4983303;28;19933;-70
2022/12/19 08:21:37;;;;;;;;;;;4.70;99.90;;;;;;4983509;28;19972;-70
2022/12/19 08:24:03;;;;;;;;;;;4.70;99.90;;;;;;4980344;28;19985;-70
2022/12/19 08:26:32;;;;;;;;;;;4.50;99.90;;;;;;4980618;28;19929;-70
2022/12/19 08:28:58;;;;;;;;;;;4.70;99.90;;;;;;4982308;28;19998;-70
2022/12/19 08:31:25;;;;;;;;;;;4.80;99.90;;;;;;4987150;28;19979;-70
2022/12/19 08:33:51;;;;;;;;;;;4.80;99.90;;;;;;4978785;28;19937;-70
2022/12/19 08:36:18;;;;;;;;;;;4.80;99.90;;;;;;4964548;28;20391;-70
2022/12/19 08:38:44;;;;;;;;;;;4.90;99.90;;;;;;4976760;28;20285;-69
2022/12/19 08:41:10;;;;;;;;;;;4.90;99.90;;;;;;4993063;28;19928;-70
2022/12/19 08:43:38;;;;;;;;;;;4.90;99.90;;;;;;4985103;28;19926;-70
2022/12/19 08:46:04;;;;;;;;;;;5.10;99.90;;;;;;4980086;28;19929;-70
2022/12/19 08:48:33;;;;;;;;;;;5.00;99.90;;;;;;4990222;28;19929;-70
2022/12/19 08:51:00;;;;;;;;;;;5.00;99.90;;;;;;4981907;28;19930;-69
2022/12/19 08:53:27;;;;;;;;;;;5.00;99.90;;;;;;4979891;28;19930;-70
2022/12/19 08:55:57;;;;;;;;;;;5.10;99.90;;;;;;4992879;28;19953;-70
2022/12/19 08:58:26;;;;;;;;;;;5.20;99.90;;;;;;4982545;28;20371;-70
2022/12/19 09:00:52;;;;;;;;;;;5.40;99.90;;;;;;4980222;28;20008;-69
2022/12/19 09:03:18;;;;;;;;;;;5.30;99.90;;;;;;4978696;28;19930;-69
2022/12/19 09:05:44;;;;;;;;;;;5.30;99.90;;;;;;4979345;28;20216;-70
2022/12/19 09:08:12;;;;;;;;;;;5.30;99.90;;;;;;4977345;28;19936;-69
2022/12/19 09:10:42;;;;;;;;;;;5.30;99.90;;;;;;4975318;28;20739;-70
2022/12/19 09:13:08;;;;;;;;;;;5.30;99.90;;;;;;4978115;28;19933;-69
2022/12/19 09:15:33;;;;;;;;;;;5.40;99.90;;;;;;4980989;28;20295;-69
2022/12/19 09:17:59;;;;;;;;;;;5.40;99.90;;;;;;5012569;28;19926;-70
2022/12/19 09:20:27;;;;;;;;;;;5.40;99.90;;;;;;4976986;28;20287;-69
2022/12/19 09:22:53;;;;;;;;;;;5.40;99.90;;;;;;4978876;28;19933;-70
2022/12/19 09:25:21;;;;;;;;;;;5.50;99.90;;;;;;4981392;28;20020;-69
2022/12/19 09:27:47;;;;;;;;;;;5.60;99.90;;;;;;5018169;28;20501;-69
2022/12/19 09:30:13;;;;;;;;;;;5.80;99.90;;;;;;4977944;28;19922;-69
2022/12/19 09:32:38;;;;;;;;;;;5.70;99.90;;;;;;4993514;28;20393;-70
2022/12/19 09:35:04;;;;;;;;;;;5.80;99.90;;;;;;4999496;28;19929;-69
2022/12/19 09:37:30;;;;;;;;;;;5.70;99.90;;;;;;4964934;28;20501;-70
2022/12/19 09:39:55;;;;;;;;;;;5.80;99.90;;;;;;4982275;28;19997;-69
2022/12/19 09:42:44;;;;;;;;;;;5.80;99.90;;;;;;4978411;28;20440;-69
2022/12/19 09:45:16;;;;;;;;;;;5.80;99.90;;;;;;4972914;28;19924;-70
2022/12/19 09:47:42;;;;;;;;;;;5.80;99.90;;;;;;4979038;28;20012;-69
2022/12/19 09:50:31;;;;;;;;;;;5.90;99.90;;;;;;4978206;28;19930;-69
2022/12/19 09:52:59;;;;;;;;;;;5.90;99.90;;;;;;4965432;28;19926;-70
2022/12/19 09:55:32;;;;;;;;;;;5.90;99.90;;;;;;5017005;27;19930;-69
2022/12/19 09:58:10;;;;;;;;;;;5.90;99.90;;;;;;4987477;28;19930;-69
2022/12/19 10:00:41;;;;;;;;;;;5.90;99.90;;;;;;4995263;28;20394;-69
2022/12/19 10:03:22;;;;;;;;;;;6.00;99.90;;;;;;4997066;28;19985;-69
2022/12/19 10:05:49;;;;;;;;;;;6.10;99.90;;;;;;5012688;28;20394;-70
2022/12/19 10:08:17;;;;;;;;;;;6.00;99.90;;;;;;5016638;27;19996;-70
2022/12/19 10:10:45;;;;;;;;;;;6.00;99.90;;;;;;4985638;28;19926;-70
2022/12/19 10:13:11;;;;;;;;;;;6.10;99.90;;;;;;4985361;28;20010;-70
2022/12/19 10:15:42;;;;;;;;;;;6.10;99.90;;;;;;4991576;28;20017;-70
2022/12/19 10:18:26;;;;;;;;;;;6.20;99.90;;;;;;4995507;28;21494;-70
2022/12/19 10:21:01;;;;;;;;;;;6.20;99.90;;;;;;4992673;28;19928;-70
2022/12/19 10:23:49;;;;;;;;;;;6.20;99.90;;;;;;4993822;28;21511;-69
2022/12/19 10:26:29;;;;;;;;;;;6.20;99.90;;;;;;4972542;28;19969;-69
2022/12/19 10:28:55;;;;;;;;;;;6.20;99.90;;;;;;5009166;28;20333;-69
2022/12/19 10:31:43;;;;;;;;;;;6.20;99.90;;;;;;4975651;28;19934;-70
2022/12/19 10:34:12;;;;;;;;;;;6.30;99.90;;;;;;5003741;28;19922;-70
2022/12/19 10:40:13;;;;;;;;;;;6.20;99.90;;;;;;4972443;28;20371;-69
2022/12/19 10:42:50;;;;;;;;;;;6.30;99.90;;;;;;4973097;28;19979;-69
2022/12/19 10:45:17;;;;;;;;;;;6.30;99.90;;;;;;5036039;28;19923;-69
2022/12/19 10:47:45;;;;;;;;;;;6.30;99.90;;;;;;4962090;28;19931;-70
2022/12/19 10:50:12;;;;;;;;;;;6.40;99.90;;;;;;4979210;28;19930;-70
2022/12/19 10:53:06;;;;;;;;;;;6.40;99.90;;;;;;4967267;28;19966;-70
2022/12/19 10:55:31;;;;;;;;;;;6.40;99.90;;;;;;4942101;28;19922;-70
2022/12/19 10:57:58;;;;;;;;;;;6.40;99.90;;;;;;4981679;28;19937;-70
2022/12/19 11:00:24;;;;;;;;;;;6.40;99.90;;;;;;4978398;28;19928;-70
2022/12/19 11:03:03;;;;;;;;;;;6.40;99.90;;;;;;5028771;28;19930;-70
2022/12/19 11:05:45;;;;;;;;;;;6.40;99.90;;;;;;4975991;28;19922;-69
2022/12/19 11:08:16;;;;;;;;;;;6.50;99.90;;;;;;4963157;28;19956;-70
2022/12/19 11:10:44;;;;;;;;;;;6.60;99.90;;;;;;5000662;27;19994;-70
2022/12/19 11:13:18;;;;;;;;;;;6.60;99.90;;;;;;4984700;28;20083;-70
2022/12/19 11:15:52;;;;;;;;;;;6.60;99.90;;;;;;4997459;28;20323;-70
2022/12/19 11:18:23;;;;;;;;;;;6.50;99.90;;;;;;5009922;28;19926;-70
2022/12/19 11:21:15;;;;;;;;;;;6.60;99.90;;;;;;5017579;27;20293;-70
2022/12/19 11:24:04;;;;;;;;;;;6.60;99.90;;;;;;4993400;28;19985;-70
2022/12/19 11:26:39;;;;;;;;;;;6.60;99.90;;;;;;5033616;27;20373;-70
2022/12/19 11:29:17;;;;;;;;;;;6.60;99.90;;;;;;5003705;28;20067;-70
2022/12/19 11:31:44;;;;;;;;;;;6.60;99.90;;;;;;5008052;28;20393;-70
2022/12/19 11:34:17;;;;;;;;;;;6.70;99.90;;;;;;4999937;28;20418;-70
2022/12/19 11:36:48;;;;;;;;;;;6.60;99.90;;;;;;4996136;28;19920;-70
2022/12/19 11:39:24;;;;;;;;;;;6.70;99.90;;;;;;4988577;28;19933;-70
2022/12/19 11:42:11;;;;;;;;;;;6.70;99.90;;;;;;4980453;28;19951;-70
2022/12/19 11:44:57;;;;;;;;;;;6.70;99.90;;;;;;5000408;28;19928;-70
2022/12/19 11:47:39;;;;;;;;;;;6.70;99.90;;;;;;4997178;28;19930;-69
2022/12/19 11:50:18;;;;;;;;;;;6.70;99.90;;;;;;4984569;28;19930;-70
2022/12/19 11:52:47;;;;;;;;;;;6.80;99.90;;;;;;5000938;28;19922;-70
2022/12/19 11:55:18;;;;;;;;;;;6.70;99.90;;;;;;4987597;28;19928;-70
2022/12/19 11:57:44;;;;;;;;;;;6.70;99.90;;;;;;4989745;28;20465;-70
2022/12/19 12:00:11;;;;;;;;;;;6.70;99.90;;;;;;4990897;28;20695;-69
2022/12/19 12:02:40;;;;;;;;;;;6.80;99.90;;;;;;5014559;27;19940;-70
2022/12/19 12:05:06;;;;;;;;;;;6.80;99.90;;;;;;4989658;28;19930;-70
2022/12/19 12:07:34;;;;;;;;;;;6.80;99.90;;;;;;5026350;27;19944;-70
2022/12/19 12:10:03;;;;;;;;;;;6.80;99.90;;;;;;4984857;28;20016;-70
2022/12/19 12:12:38;;;;;;;;;;;6.90;99.90;;;;;;4988266;28;20394;-70
2022/12/19 12:15:09;;;;;;;;;;;6.90;99.90;;;;;;4991896;28;19922;-70
2022/12/19 12:17:54;;;;;;;;;;;6.90;99.90;;;;;;4999507;28;19929;-70
2022/12/19 12:20:39;;;;;;;;;;;7.00;99.90;;;;;;4992600;28;20026;-70
2022/12/19 12:23:22;;;;;;;;;;;6.90;99.90;;;;;;4980568;28;20175;-70
2022/12/19 12:25:56;;;;;;;;;;;7.00;99.90;;;;;;4980034;28;19937;-70
2022/12/19 12:28:43;;;;;;;;;;;7.00;99.90;;;;;;4996168;28;19953;-70
2022/12/19 12:31:11;;;;;;;;;;;7.00;99.90;;;;;;4982442;28;20036;-70
2022/12/19 12:33:49;;;;;;;;;;;7.00;99.90;;;;;;5007767;28;19995;-70
2022/12/19 12:36:24;;;;;;;;;;;7.00;99.90;;;;;;4987892;28;19930;-70
2022/12/19 12:38:52;;;;;;;;;;;7.00;99.90;;;;;;4962709;28;19930;-71
2022/12/19 12:42:02;;;;;;;;;;;7.10;99.90;;;;;;4982953;28;20015;-69
2022/12/19 12:44:12;;;;;;;;;;;7.10;99.90;;;;;;4989741;28;20401;-70
2022/12/19 12:46:45;;;;;;;;;;;7.10;99.90;;;;;;5013737;28;20193;-70
2022/12/19 12:49:16;;;;;;;;;;;7.10;99.90;;;;;;4996354;28;20050;-70
2022/12/19 12:51:42;;;;;;;;;;;7.10;99.90;;;;;;4978718;28;20409;-70
2022/12/19 12:54:11;;;;;;;;;;;7.10;99.90;;;;;;4981762;28;19929;-70
2022/12/19 12:56:37;;;;;;;;;;;7.20;99.90;;;;;;5005232;28;19932;-70
2022/12/19 12:59:05;;;;;;;;;;;7.20;99.90;;;;;;4986816;28;20317;-70
2022/12/19 13:01:36;;;;;;;;;;;7.20;99.90;;;;;;4996242;28;19941;-70
2022/12/19 13:04:10;;;;;;;;;;;7.30;99.90;;;;;;4993408;28;20383;-70
2022/12/19 13:06:40;;;;;;;;;;;7.20;99.90;;;;;;4984077;28;19922;-70
2022/12/19 13:09:12;;;;;;;;;;;7.30;99.90;;;;;;4993184;28;19922;-70
2022/12/19 13:14:33;;;;;;;;;;;7.40;99.90;;;;;;5000899;28;19922;-70
2022/12/19 13:17:04;;;;;;;;;;;7.40;99.90;;;;;;5009034;28;19973;-70
2022/12/19 13:19:34;;;;;;;;;;;7.40;99.90;;;;;;5018048;28;20398;-70
2022/12/19 13:22:03;;;;;;;;;;;7.40;99.90;;;;;;5095144;28;19934;-70
2022/12/19 13:24:44;;;;;;;;;;;7.40;99.90;;;;;;5012685;28;20042;-70
2022/12/19 13:27:33;;;;;;;;;;;7.40;99.90;;;;;;5027944;28;19963;-70
2022/12/19 13:29:58;;;;;;;;;;;7.40;99.90;;;;;;5027256;28;20003;-70
2022/12/19 13:32:25;;;;;;;;;;;7.50;99.90;;;;;;5105471;27;20007;-70
2022/12/19 13:34:58;;;;;;;;;;;7.50;99.90;;;;;;5076872;27;19971;-70
2022/12/19 13:37:50;;;;;;;;;;;7.50;99.90;;;;;;5021581;28;19930;-70
2022/12/19 13:40:25;;;;;;;;;;;7.50;99.90;;;;;;5025950;28;19921;-70
2022/12/19 13:45:58;;;;;;;;;;;7.60;99.90;;;;;;5003899;28;19925;-70
2022/12/19 13:48:27;;;;;;;;;;;7.60;99.90;;;;;;5005904;28;19928;-70
2022/12/19 13:50:53;;;;;;;;;;;7.70;99.90;;;;;;5017411;28;19929;-70
2022/12/19 13:53:21;;;;;;;;;;;7.70;99.90;;;;;;5010640;28;20391;-70
2022/12/19 13:55:48;;;;;;;;;;;7.70;99.90;;;;;;5023111;28;19929;-70
2022/12/19 13:58:22;;;;;;;;;;;7.70;99.90;;;;;;5057072;28;19920;-70
2022/12/19 14:00:49;;;;;;;;;;;7.70;99.90;;;;;;5043873;28;19924;-70
2022/12/19 14:03:16;;;;;;;;;;;7.70;99.90;;;;;;5043132;27;19924;-70
2022/12/19 14:05:42;;;;;;;;;;;7.70;99.90;;;;;;5004292;28;20276;-70
2022/12/19 14:08:09;;;;;;;;;;;7.70;99.90;;;;;;5057795;28;19973;-70
2022/12/19 14:10:37;;;;;;;;;;;7.70;99.90;;;;;;5032504;28;19932;-70
2022/12/19 14:15:50;;;;;;;;;;;7.70;99.90;;;;;;5062872;27;19924;-70
2022/12/19 14:18:26;;;;;;;;;;;7.70;99.90;;;;;;5013480;28;19921;-69
2022/12/19 14:21:10;;;;;;;;;;;7.80;99.90;;;;;;5048062;28;19920;-69
2022/12/19 14:23:36;;;;;;;;;;;7.80;99.90;;;;;;4998989;28;20072;-70
2022/12/19 14:26:02;;;;;;;;;;;7.80;99.90;;;;;;4985018;28;20005;-70
2022/12/19 14:28:40;;;;;;;;;;;7.80;99.90;;;;;;5055184;28;19923;-70
2022/12/19 14:31:10;;;;;;;;;;;7.70;99.90;;;;;;5060694;27;19927;-70
2022/12/19 14:33:55;;;;;;;;;;;7.80;99.90;;;;;;4993640;28;20221;-70
2022/12/19 14:36:28;;;;;;;;;;;7.80;99.90;;;;;;5062086;28;20373;-69
2022/12/19 14:38:55;;;;;;;;;;;7.70;99.90;;;;;;5025495;28;19973;-70
2022/12/19 14:44:12;;;;;;;;;;;7.70;99.90;;;;;;5059873;28;20382;-70
2022/12/19 14:46:38;;;;;;;;;;;7.70;99.90;;;;;;5009791;28;19922;-70
2022/12/19 14:49:22;;;;;;;;;;;7.70;99.90;;;;;;5005051;28;19922;-70
2022/12/19 14:51:48;;;;;;;;;;;7.60;99.90;;;;;;5009289;28;19928;-70
2022/12/19 14:54:18;;;;;;;;;;;7.60;99.90;;;;;;5036763;27;20321;-70
2022/12/19 14:56:55;;;;;;;;;;;7.60;99.90;;;;;;5010915;28;20415;-70
2022/12/19 14:59:47;;;;;;;;;;;7.50;99.90;;;;;;5012063;28;20309;-70
2022/12/19 15:02:22;;;;;;;;;;;7.50;99.90;;;;;;5035226;28;20003;-70